Terminal Aerodrome Forecast
Issued by NWS Portland, OR

Home | Current Version | Previous Version | Text Only | Print | Product List | Glossary On
Versions: 1 2 3 4 5 6 7 8 9 10 11 12 13 14 15 16 17 18
000
FTUS46 KPQR 251140
TAFSLE
TAF
KSLE 251140Z 2512/2612 24004KT 4SM BR OVC006
     FM251400 16009KT 5SM -RA BR SCT006 BKN012 OVC050
     FM251800 17015G25KT 5SM -RA OVC050
     FM252200 19025G35KT P6SM -RA SCT025 OVC050
     FM260200 21015G25KT P6SM -SHRA BKN030 BKN050
     FM260500 23012KT P6SM -SHRA BKN030 BKN050=

USA.gov is the U.S. government's official web portal to all federal, state and local government web resources and services.